sensor_id;sensor_type;location;lat;lon;timestamp;temperature;humidity
26262;DHT22;13988;52.446;13.280;2022-11-15T00:00:07;4.70;99.90
26262;DHT22;13988;52.446;13.280;2022-11-15T00:02:33;4.60;99.90
26262;DHT22;13988;52.446;13.280;2022-11-15T00:04:59;4.60;99.90
26262;DHT22;13988;52.446;13.280;2022-11-15T00:07:24;4.80;99.90
26262;DHT22;13988;52.446;13.280;2022-11-15T00:09:50;4.60;99.90
26262;DHT22;13988;52.446;13.280;2022-11-15T00:12:15;4.60;99.90
26262;DHT22;13988;52.446;13.280;2022-11-15T00:14:41;4.60;99.90
26262;DHT22;13988;52.446;13.280;2022-11-15T00:17:07;4.60;99.90
26262;DHT22;13988;52.446;13.280;2022-11-15T00:19:32;4.60;99.90
26262;DHT22;13988;52.446;13.280;2022-11-15T00:21:58;4.60;99.90
26262;DHT22;13988;52.446;13.280;2022-11-15T00:24:24;4.60;99.90
26262;DHT22;13988;52.446;13.280;2022-11-15T00:26:49;4.60;99.90
26262;DHT22;13988;52.446;13.280;2022-11-15T00:29:15;4.50;99.90
26262;DHT22;13988;52.446;13.280;2022-11-15T00:31:41;4.50;99.90
26262;DHT22;13988;52.446;13.280;2022-11-15T00:34:06;4.50;99.90
26262;DHT22;13988;52.446;13.280;2022-11-15T00:36:35;4.40;99.90
26262;DHT22;13988;52.446;13.280;2022-11-15T00:39:02;4.50;99.90
26262;DHT22;13988;52.446;13.280;2022-11-15T00:41:28;4.60;99.90
26262;DHT22;13988;52.446;13.280;2022-11-15T00:43:54;4.40;99.90
26262;DHT22;13988;52.446;13.280;2022-11-15T00:46:19;4.40;99.90
26262;DHT22;13988;52.446;13.280;2022-11-15T00:48:45;4.40;99.90
26262;DHT22;13988;52.446;13.280;2022-11-15T00:51:10;4.40;99.90
26262;DHT22;13988;52.446;13.280;2022-11-15T00:53:36;4.40;99.90
26262;DHT22;13988;52.446;13.280;2022-11-15T00:56:02;4.50;99.90
26262;DHT22;13988;52.446;13.280;2022-11-15T00:58:28;4.40;99.90
26262;DHT22;13988;52.446;13.280;2022-11-15T01:00:53;4.50;99.90
26262;DHT22;13988;52.446;13.280;2022-11-15T01:03:20;4.70;99.90
26262;DHT22;13988;52.446;13.280;2022-11-15T01:05:45;4.50;99.90
26262;DHT22;13988;52.446;13.280;2022-11-15T01:08:15;4.60;99.90
26262;DHT22;13988;52.446;13.280;2022-11-15T01:10:41;4.70;99.90
26262;DHT22;13988;52.446;13.280;2022-11-15T01:13:07;4.70;99.90
26262;DHT22;13988;52.446;13.280;2022-11-15T01:15:33;4.70;99.90
26262;DHT22;13988;52.446;13.280;2022-11-15T01:17:58;4.60;99.90
26262;DHT22;13988;52.446;13.280;2022-11-15T01:20:24;4.60;99.90
26262;DHT22;13988;52.446;13.280;2022-11-15T01:22:50;4.60;99.90
26262;DHT22;13988;52.446;13.280;2022-11-15T01:25:15;4.60;99.90
26262;DHT22;13988;52.446;13.280;2022-11-15T01:27:41;4.60;99.90
26262;DHT22;13988;52.446;13.280;2022-11-15T01:30:07;4.60;99.90
26262;DHT22;13988;52.446;13.280;2022-11-15T01:32:33;4.50;99.90
26262;DHT22;13988;52.446;13.280;2022-11-15T01:34:59;4.50;99.90
26262;DHT22;13988;52.446;13.280;2022-11-15T01:37:25;4.50;99.90
26262;DHT22;13988;52.446;13.280;2022-11-15T01:39:50;4.50;99.90
26262;DHT22;13988;52.446;13.280;2022-11-15T01:42:16;4.70;99.90
26262;DHT22;13988;52.446;13.280;2022-11-15T01:44:49;4.40;99.90
26262;DHT22;13988;52.446;13.280;2022-11-15T01:47:24;4.40;99.90
26262;DHT22;13988;52.446;13.280;2022-11-15T01:52:19;4.40;99.90
26262;DHT22;13988;52.446;13.280;2022-11-15T01:54:48;4.50;99.90
26262;DHT22;13988;52.446;13.280;2022-11-15T01:57:15;4.40;99.90
26262;DHT22;13988;52.446;13.280;2022-11-15T01:59:43;4.30;99.90
26262;DHT22;13988;52.446;13.280;2022-11-15T02:02:10;4.40;99.90
26262;DHT22;13988;52.446;13.280;2022-11-15T02:04:44;4.60;99.90
26262;DHT22;13988;52.446;13.280;2022-11-15T02:07:12;4.30;99.90
26262;DHT22;13988;52.446;13.280;2022-11-15T02:09:39;4.30;99.90
26262;DHT22;13988;52.446;13.280;2022-11-15T02:12:06;4.20;99.90
26262;DHT22;13988;52.446;13.280;2022-11-15T02:14:34;4.30;99.90
26262;DHT22;13988;52.446;13.280;2022-11-15T02:25:48;4.20;99.90
26262;DHT22;13988;52.446;13.280;2022-11-15T02:41:57;4.10;99.90
26262;DHT22;13988;52.446;13.280;2022-11-15T02:44:43;4.10;99.90
26262;DHT22;13988;52.446;13.280;2022-11-15T02:47:13;4.10;99.90
26262;DHT22;13988;52.446;13.280;2022-11-15T02:49:46;4.00;99.90
26262;DHT22;13988;52.446;13.280;2022-11-15T02:52:20;4.00;99.90
26262;DHT22;13988;52.446;13.280;2022-11-15T02:54:56;4.00;99.90
26262;DHT22;13988;52.446;13.280;2022-11-15T03:00:11;4.00;99.90
26262;DHT22;13988;52.446;13.280;2022-11-15T03:03:41;4.00;99.90
26262;DHT22;13988;52.446;13.280;2022-11-15T03:06:26;4.00;99.90
26262;DHT22;13988;52.446;13.280;2022-11-15T03:09:13;3.90;99.90
26262;DHT22;13988;52.446;13.280;2022-11-15T03:11:49;3.90;99.90
26262;DHT22;13988;52.446;13.280;2022-11-15T03:15:03;4.00;99.90
26262;DHT22;13988;52.446;13.280;2022-11-15T03:17:29;4.00;99.90
26262;DHT22;13988;52.446;13.280;2022-11-15T03:19:57;3.90;99.90
26262;DHT22;13988;52.446;13.280;2022-11-15T03:22:27;4.00;99.90
26262;DHT22;13988;52.446;13.280;2022-11-15T03:24:57;3.90;99.90
26262;DHT22;13988;52.446;13.280;2022-11-15T03:27:29;4.10;99.90
26262;DHT22;13988;52.446;13.280;2022-11-15T03:30:00;3.90;99.90
26262;DHT22;13988;52.446;13.280;2022-11-15T03:32:30;4.00;99.90
26262;DHT22;13988;52.446;13.280;2022-11-15T03:35:02;3.90;99.90
26262;DHT22;13988;52.446;13.280;2022-11-15T03:38:00;3.90;99.90
26262;DHT22;13988;52.446;13.280;2022-11-15T03:40:48;3.90;99.90
26262;DHT22;13988;52.446;13.280;2022-11-15T03:46:19;3.80;99.90
26262;DHT22;13988;52.446;13.280;2022-11-15T03:48:59;3.90;99.90
26262;DHT22;13988;52.446;13.280;2022-11-15T03:51:25;3.80;99.90
26262;DHT22;13988;52.446;13.280;2022-11-15T03:53:51;4.00;99.90
26262;DHT22;13988;52.446;13.280;2022-11-15T03:56:17;3.80;99.90
26262;DHT22;13988;52.446;13.280;2022-11-15T03:58:42;3.80;99.90
26262;DHT22;13988;52.446;13.280;2022-11-15T04:01:08;3.80;99.90
26262;DHT22;13988;52.446;13.280;2022-11-15T04:03:34;3.80;99.90
26262;DHT22;13988;52.446;13.280;2022-11-15T04:05:59;3.80;99.90
26262;DHT22;13988;52.446;13.280;2022-11-15T04:08:25;3.80;99.90
26262;DHT22;13988;52.446;13.280;2022-11-15T04:10:51;3.80;99.90
26262;DHT22;13988;52.446;13.280;2022-11-15T04:13:17;3.90;99.90
26262;DHT22;13988;52.446;13.280;2022-11-15T04:15:42;3.80;99.90
26262;DHT22;13988;52.446;13.280;2022-11-15T04:18:08;3.80;99.90
26262;DHT22;13988;52.446;13.280;2022-11-15T04:20:34;3.80;99.90
26262;DHT22;13988;52.446;13.280;2022-11-15T04:23:20;3.80;99.90
26262;DHT22;13988;52.446;13.280;2022-11-15T04:26:14;3.90;99.90
26262;DHT22;13988;52.446;13.280;2022-11-15T04:28:40;3.80;99.90
26262;DHT22;13988;52.446;13.280;2022-11-15T04:31:25;3.80;99.90
26262;DHT22;13988;52.446;13.280;2022-11-15T04:33:51;3.80;99.90
26262;DHT22;13988;52.446;13.280;2022-11-15T04:36:17;3.80;99.90
26262;DHT22;13988;52.446;13.280;2022-11-15T04:39:01;3.80;99.90
26262;DHT22;13988;52.446;13.280;2022-11-15T04:41:27;3.90;99.90
26262;DHT22;13988;52.446;13.280;2022-11-15T04:43:52;3.80;99.90
26262;DHT22;13988;52.446;13.280;2022-11-15T04:46:18;3.80;99.90
26262;DHT22;13988;52.446;13.280;2022-11-15T04:48:43;3.80;99.90
26262;DHT22;13988;52.446;13.280;2022-11-15T04:51:09;3.70;99.90
26262;DHT22;13988;52.446;13.280;2022-11-15T04:53:35;3.70;99.90
26262;DHT22;13988;52.446;13.280;2022-11-15T04:56:00;3.70;99.90
26262;DHT22;13988;52.446;13.280;2022-11-15T04:58:26;3.70;99.90
26262;DHT22;13988;52.446;13.280;2022-11-15T05:00:51;3.70;99.90
26262;DHT22;13988;52.446;13.280;2022-11-15T05:03:17;3.70;99.90
26262;DHT22;13988;52.446;13.280;2022-11-15T05:06:01;3.70;99.90
26262;DHT22;13988;52.446;13.280;2022-11-15T05:08:27;3.70;99.90
26262;DHT22;13988;52.446;13.280;2022-11-15T05:10:53;3.70;99.90
26262;DHT22;13988;52.446;13.280;2022-11-15T05:13:18;3.80;99.90
26262;DHT22;13988;52.446;13.280;2022-11-15T05:15:44;3.80;99.90
26262;DHT22;13988;52.446;13.280;2022-11-15T05:18:10;3.80;99.90
26262;DHT22;13988;52.446;13.280;2022-11-15T05:20:35;3.80;99.90
26262;DHT22;13988;52.446;13.280;2022-11-15T05:23:01;3.80;99.90
26262;DHT22;13988;52.446;13.280;2022-11-15T05:25:27;3.70;99.90
26262;DHT22;13988;52.446;13.280;2022-11-15T05:27:52;3.70;99.90
26262;DHT22;13988;52.446;13.280;2022-11-15T05:30:19;3.70;99.90
26262;DHT22;13988;52.446;13.280;2022-11-15T05:32:44;3.70;99.90
26262;DHT22;13988;52.446;13.280;2022-11-15T05:35:18;3.90;99.90
26262;DHT22;13988;52.446;13.280;2022-11-15T05:37:45;3.70;99.90
26262;DHT22;13988;52.446;13.280;2022-11-15T05:40:11;3.70;99.90
26262;DHT22;13988;52.446;13.280;2022-11-15T05:42:37;3.70;99.90
26262;DHT22;13988;52.446;13.280;2022-11-15T05:45:05;3.70;99.90
26262;DHT22;13988;52.446;13.280;2022-11-15T05:47:31;3.60;99.90
26262;DHT22;13988;52.446;13.280;2022-11-15T05:49:59;3.50;99.90
26262;DHT22;13988;52.446;13.280;2022-11-15T05:52:30;3.60;99.90
26262;DHT22;13988;52.446;13.280;2022-11-15T05:54:57;3.50;99.90
26262;DHT22;13988;52.446;13.280;2022-11-15T05:57:24;3.60;99.90
26262;DHT22;13988;52.446;13.280;2022-11-15T05:59:49;3.60;99.90
26262;DHT22;13988;52.446;13.280;2022-11-15T06:02:15;3.50;99.90
26262;DHT22;13988;52.446;13.280;2022-11-15T06:04:41;3.50;99.90
26262;DHT22;13988;52.446;13.280;2022-11-15T06:07:07;3.50;99.90
26262;DHT22;13988;52.446;13.280;2022-11-15T06:09:32;3.50;99.90
26262;DHT22;13988;52.446;13.280;2022-11-15T06:11:58;3.50;99.90
26262;DHT22;13988;52.446;13.280;2022-11-15T06:14:23;3.80;99.90
26262;DHT22;13988;52.446;13.280;2022-11-15T06:16:49;3.50;99.90
26262;DHT22;13988;52.446;13.280;2022-11-15T06:19:15;3.60;99.90
26262;DHT22;13988;52.446;13.280;2022-11-15T06:21:40;3.50;99.90
26262;DHT22;13988;52.446;13.280;2022-11-15T06:24:06;3.50;99.90
26262;DHT22;13988;52.446;13.280;2022-11-15T06:26:32;3.50;99.90
26262;DHT22;13988;52.446;13.280;2022-11-15T06:28:58;3.50;99.90
26262;DHT22;13988;52.446;13.280;2022-11-15T06:31:23;3.60;99.90
26262;DHT22;13988;52.446;13.280;2022-11-15T06:33:49;3.50;99.90
26262;DHT22;13988;52.446;13.280;2022-11-15T06:36:15;3.50;99.90
26262;DHT22;13988;52.446;13.280;2022-11-15T06:38:43;3.60;99.90
26262;DHT22;13988;52.446;13.280;2022-11-15T06:41:10;3.50;99.90
26262;DHT22;13988;52.446;13.280;2022-11-15T06:43:37;3.60;99.90
26262;DHT22;13988;52.446;13.280;2022-11-15T06:46:04;3.80;99.90
26262;DHT22;13988;52.446;13.280;2022-11-15T06:48:31;3.70;99.90
26262;DHT22;13988;52.446;13.280;2022-11-15T06:50:58;3.80;99.90
26262;DHT22;13988;52.446;13.280;2022-11-15T06:53:25;3.80;99.90
26262;DHT22;13988;52.446;13.280;2022-11-15T06:55:51;3.80;99.90
26262;DHT22;13988;52.446;13.280;2022-11-15T06:58:17;3.70;99.90
26262;DHT22;13988;52.446;13.280;2022-11-15T07:00:43;3.90;99.90
26262;DHT22;13988;52.446;13.280;2022-11-15T07:03:09;3.90;99.90
26262;DHT22;13988;52.446;13.280;2022-11-15T07:05:35;3.80;99.90
26262;DHT22;13988;52.446;13.280;2022-11-15T07:08:01;4.00;99.90
26262;DHT22;13988;52.446;13.280;2022-11-15T07:10:27;4.00;99.90
26262;DHT22;13988;52.446;13.280;2022-11-15T07:12:53;3.90;99.90
26262;DHT22;13988;52.446;13.280;2022-11-15T07:15:21;4.00;99.90
26262;DHT22;13988;52.446;13.280;2022-11-15T07:17:46;4.10;99.90
26262;DHT22;13988;52.446;13.280;2022-11-15T07:20:13;4.20;99.90
26262;DHT22;13988;52.446;13.280;2022-11-15T07:22:40;4.20;99.90
26262;DHT22;13988;52.446;13.280;2022-11-15T07:25:06;4.30;99.90
26262;DHT22;13988;52.446;13.280;2022-11-15T07:27:32;4.30;99.90
26262;DHT22;13988;52.446;13.280;2022-11-15T07:29:57;4.50;99.90
26262;DHT22;13988;52.446;13.280;2022-11-15T07:32:23;4.50;99.90
26262;DHT22;13988;52.446;13.280;2022-11-15T07:34:49;4.50;99.90
26262;DHT22;13988;52.446;13.280;2022-11-15T07:37:14;4.50;99.90
26262;DHT22;13988;52.446;13.280;2022-11-15T07:39:40;4.50;99.90
26262;DHT22;13988;52.446;13.280;2022-11-15T07:42:06;4.70;99.90
26262;DHT22;13988;52.446;13.280;2022-11-15T07:44:50;4.90;99.90
26262;DHT22;13988;52.446;13.280;2022-11-15T07:47:16;4.80;99.90
26262;DHT22;13988;52.446;13.280;2022-11-15T07:49:41;4.90;99.90
26262;DHT22;13988;52.446;13.280;2022-11-15T07:52:07;4.80;99.90
26262;DHT22;13988;52.446;13.280;2022-11-15T07:54:33;4.90;99.90
26262;DHT22;13988;52.446;13.280;2022-11-15T07:56:58;4.90;99.90
26262;DHT22;13988;52.446;13.280;2022-11-15T07:59:24;4.90;99.90
26262;DHT22;13988;52.446;13.280;2022-11-15T08:01:50;5.20;99.90
26262;DHT22;13988;52.446;13.280;2022-11-15T08:04:15;5.20;99.90
26262;DHT22;13988;52.446;13.280;2022-11-15T08:06:41;5.30;99.90
26262;DHT22;13988;52.446;13.280;2022-11-15T08:09:06;5.50;99.90
26262;DHT22;13988;52.446;13.280;2022-11-15T08:11:32;5.50;99.90
26262;DHT22;13988;52.446;13.280;2022-11-15T08:13:58;5.50;99.90
26262;DHT22;13988;52.446;13.280;2022-11-15T08:16:24;5.60;99.90
26262;DHT22;13988;52.446;13.280;2022-11-15T08:18:50;5.80;99.90
26262;DHT22;13988;52.446;13.280;2022-11-15T08:21:19;5.80;99.90
26262;DHT22;13988;52.446;13.280;2022-11-15T08:23:45;5.80;99.90
26262;DHT22;13988;52.446;13.280;2022-11-15T08:26:11;5.80;99.90
26262;DHT22;13988;52.446;13.280;2022-11-15T08:28:36;5.90;99.90
26262;DHT22;13988;52.446;13.280;2022-11-15T08:31:03;5.90;99.90
26262;DHT22;13988;52.446;13.280;2022-11-15T08:33:29;5.90;99.90
26262;DHT22;13988;52.446;13.280;2022-11-15T08:35:59;6.20;99.90
26262;DHT22;13988;52.446;13.280;2022-11-15T08:38:25;6.20;99.90
26262;DHT22;13988;52.446;13.280;2022-11-15T08:40:52;6.20;99.90
26262;DHT22;13988;52.446;13.280;2022-11-15T08:43:18;6.30;99.90
26262;DHT22;13988;52.446;13.280;2022-11-15T08:45:44;6.30;99.90
26262;DHT22;13988;52.446;13.280;2022-11-15T08:48:10;6.50;99.90
26262;DHT22;13988;52.446;13.280;2022-11-15T08:50:35;6.50;99.90
26262;DHT22;13988;52.446;13.280;2022-11-15T08:53:06;6.50;99.90
26262;DHT22;13988;52.446;13.280;2022-11-15T08:55:32;6.70;99.90
26262;DHT22;13988;52.446;13.280;2022-11-15T08:58:00;6.80;99.90
26262;DHT22;13988;52.446;13.280;2022-11-15T09:00:26;6.80;99.90
26262;DHT22;13988;52.446;13.280;2022-11-15T09:02:52;6.90;99.90
26262;DHT22;13988;52.446;13.280;2022-11-15T09:05:17;6.90;99.90
26262;DHT22;13988;52.446;13.280;2022-11-15T09:07:44;7.00;99.90
26262;DHT22;13988;52.446;13.280;2022-11-15T09:10:10;7.10;99.90
26262;DHT22;13988;52.446;13.280;2022-11-15T09:12:35;7.20;99.90
26262;DHT22;13988;52.446;13.280;2022-11-15T09:15:01;7.10;99.90
26262;DHT22;13988;52.446;13.280;2022-11-15T09:17:27;7.30;99.90
26262;DHT22;13988;52.446;13.280;2022-11-15T09:19:52;7.30;99.90
26262;DHT22;13988;52.446;13.280;2022-11-15T09:22:18;7.30;99.90
26262;DHT22;13988;52.446;13.280;2022-11-15T09:24:44;7.50;99.90
26262;DHT22;13988;52.446;13.280;2022-11-15T09:27:09;7.50;99.90
26262;DHT22;13988;52.446;13.280;2022-11-15T09:29:35;7.60;99.90
26262;DHT22;13988;52.446;13.280;2022-11-15T09:32:01;7.50;99.90
26262;DHT22;13988;52.446;13.280;2022-11-15T09:34:27;7.60;99.90
26262;DHT22;13988;52.446;13.280;2022-11-15T09:36:53;7.70;99.90
26262;DHT22;13988;52.446;13.280;2022-11-15T09:39:18;7.70;99.90
26262;DHT22;13988;52.446;13.280;2022-11-15T09:45:03;7.80;99.90
26262;DHT22;13988;52.446;13.280;2022-11-15T09:50:06;8.00;99.90
26262;DHT22;13988;52.446;13.280;2022-11-15T09:52:35;8.10;99.90
26262;DHT22;13988;52.446;13.280;2022-11-15T09:55:02;8.20;99.90
26262;DHT22;13988;52.446;13.280;2022-11-15T10:02:58;8.50;99.90
26262;DHT22;13988;52.446;13.280;2022-11-15T10:05:27;8.60;99.90
26262;DHT22;13988;52.446;13.280;2022-11-15T10:08:28;8.60;99.90
26262;DHT22;13988;52.446;13.280;2022-11-15T10:11:02;8.80;99.90
26262;DHT22;13988;52.446;13.280;2022-11-15T10:13:34;8.80;99.90
26262;DHT22;13988;52.446;13.280;2022-11-15T10:19:26;9.10;99.90
26262;DHT22;13988;52.446;13.280;2022-11-15T10:22:00;9.20;99.90
26262;DHT22;13988;52.446;13.280;2022-11-15T10:24:30;9.20;99.90
26262;DHT22;13988;52.446;13.280;2022-11-15T10:26:58;9.30;99.90
26262;DHT22;13988;52.446;13.280;2022-11-15T10:29:25;9.30;99.90
26262;DHT22;13988;52.446;13.280;2022-11-15T10:31:51;9.40;99.90
26262;DHT22;13988;52.446;13.280;2022-11-15T10:34:24;9.40;99.90
26262;DHT22;13988;52.446;13.280;2022-11-15T10:36:55;9.50;99.90
26262;DHT22;13988;52.446;13.280;2022-11-15T10:39:22;9.50;99.90
26262;DHT22;13988;52.446;13.280;2022-11-15T10:41:47;9.80;99.90
26262;DHT22;13988;52.446;13.280;2022-11-15T10:46:43;9.90;99.90
26262;DHT22;13988;52.446;13.280;2022-11-15T10:49:28;9.90;99.90
26262;DHT22;13988;52.446;13.280;2022-11-15T10:52:02;10.10;99.90
26262;DHT22;13988;52.446;13.280;2022-11-15T10:54:35;10.00;99.90
26262;DHT22;13988;52.446;13.280;2022-11-15T10:57:07;10.10;99.90
26262;DHT22;13988;52.446;13.280;2022-11-15T10:59:37;10.20;99.90
26262;DHT22;13988;52.446;13.280;2022-11-15T11:04:50;10.10;99.90
26262;DHT22;13988;52.446;13.280;2022-11-15T11:07:27;10.10;99.90
26262;DHT22;13988;52.446;13.280;2022-11-15T11:12:33;10.30;99.90
26262;DHT22;13988;52.446;13.280;2022-11-15T11:15:00;10.50;99.90
26262;DHT22;13988;52.446;13.280;2022-11-15T11:17:57;10.40;99.90
26262;DHT22;13988;52.446;13.280;2022-11-15T11:20:33;10.60;99.90
26262;DHT22;13988;52.446;13.280;2022-11-15T11:36:45;11.20;99.90
26262;DHT22;13988;52.446;13.280;2022-11-15T11:45:40;11.30;99.90
26262;DHT22;13988;52.446;13.280;2022-11-15T11:48:23;11.50;99.90
26262;DHT22;13988;52.446;13.280;2022-11-15T11:51:03;11.40;99.90
26262;DHT22;13988;52.446;13.280;2022-11-15T11:53:37;11.80;99.90
26262;DHT22;13988;52.446;13.280;2022-11-15T11:56:28;12.10;99.90
26262;DHT22;13988;52.446;13.280;2022-11-15T11:59:39;12.50;99.90
26262;DHT22;13988;52.446;13.280;2022-11-15T12:01:45;13.20;99.90
26262;DHT22;13988;52.446;13.280;2022-11-15T12:04:30;14.70;99.90
26262;DHT22;13988;52.446;13.280;2022-11-15T12:07:04;16.10;99.90
26262;DHT22;13988;52.446;13.280;2022-11-15T12:10:11;17.40;99.90
26262;DHT22;13988;52.446;13.280;2022-11-15T12:12:50;17.80;99.90
26262;DHT22;13988;52.446;13.280;2022-11-15T12:15:26;18.60;99.90
26262;DHT22;13988;52.446;13.280;2022-11-15T12:17:55;17.80;99.90
26262;DHT22;13988;52.446;13.280;2022-11-15T12:20:25;17.70;99.90
26262;DHT22;13988;52.446;13.280;2022-11-15T12:23:03;17.50;99.90
26262;DHT22;13988;52.446;13.280;2022-11-15T12:28:49;14.80;99.90
26262;DHT22;13988;52.446;13.280;2022-11-15T12:31:40;13.60;99.90
26262;DHT22;13988;52.446;13.280;2022-11-15T12:36:50;14.60;99.90
26262;DHT22;13988;52.446;13.280;2022-11-15T12:39:17;14.90;99.90
26262;DHT22;13988;52.446;13.280;2022-11-15T12:59:59;16.60;99.90
26262;DHT22;13988;52.446;13.280;2022-11-15T13:02:40;15.60;99.90
26262;DHT22;13988;52.446;13.280;2022-11-15T13:17:46;17.90;99.90
26262;DHT22;13988;52.446;13.280;2022-11-15T13:22:51;17.40;99.90
26262;DHT22;13988;52.446;13.280;2022-11-15T13:30:37;17.30;99.90
26262;DHT22;13988;52.446;13.280;2022-11-15T13:33:36;17.20;99.90
26262;DHT22;13988;52.446;13.280;2022-11-15T13:36:07;17.40;99.90
26262;DHT22;13988;52.446;13.280;2022-11-15T13:38:37;17.30;99.90
26262;DHT22;13988;52.446;13.280;2022-11-15T13:41:24;17.30;99.90
26262;DHT22;13988;52.446;13.280;2022-11-15T13:43:51;16.50;99.90
26262;DHT22;13988;52.446;13.280;2022-11-15T13:46:22;15.60;99.90
26262;DHT22;13988;52.446;13.280;2022-11-15T13:51:38;14.20;99.90
26262;DHT22;13988;52.446;13.280;2022-11-15T13:56:53;13.30;99.90
26262;DHT22;13988;52.446;13.280;2022-11-15T14:01:52;13.00;99.90
26262;DHT22;13988;52.446;13.280;2022-11-15T14:04:22;12.70;99.90
26262;DHT22;13988;52.446;13.280;2022-11-15T14:06:57;12.40;99.90
26262;DHT22;13988;52.446;13.280;2022-11-15T14:09:32;12.30;99.90
26262;DHT22;13988;52.446;13.280;2022-11-15T14:11:58;12.20;99.90
26262;DHT22;13988;52.446;13.280;2022-11-15T14:14:26;12.00;99.90
26262;DHT22;13988;52.446;13.280;2022-11-15T14:16:54;12.00;99.90
26262;DHT22;13988;52.446;13.280;2022-11-15T14:22:15;11.80;99.90
26262;DHT22;13988;52.446;13.280;2022-11-15T14:24:43;11.80;99.90
26262;DHT22;13988;52.446;13.280;2022-11-15T14:29:41;11.70;99.90
26262;DHT22;13988;52.446;13.280;2022-11-15T14:35:20;11.60;99.90
26262;DHT22;13988;52.446;13.280;2022-11-15T14:37:46;11.60;99.90
26262;DHT22;13988;52.446;13.280;2022-11-15T14:40:21;11.60;99.90
26262;DHT22;13988;52.446;13.280;2022-11-15T14:42:48;11.50;99.90
26262;DHT22;13988;52.446;13.280;2022-11-15T14:45:16;11.30;99.90
26262;DHT22;13988;52.446;13.280;2022-11-15T14:47:42;11.10;99.90
26262;DHT22;13988;52.446;13.280;2022-11-15T14:50:20;11.00;99.90
26262;DHT22;13988;52.446;13.280;2022-11-15T14:52:47;10.70;99.90
26262;DHT22;13988;52.446;13.280;2022-11-15T14:55:34;10.70;99.90
26262;DHT22;13988;52.446;13.280;2022-11-15T14:58:05;10.60;99.90
26262;DHT22;13988;52.446;13.280;2022-11-15T15:00:35;10.40;99.90
26262;DHT22;13988;52.446;13.280;2022-11-15T15:03:01;10.40;99.90
26262;DHT22;13988;52.446;13.280;2022-11-15T15:08:01;10.60;99.90
26262;DHT22;13988;52.446;13.280;2022-11-15T15:10:32;10.70;99.90
26262;DHT22;13988;52.446;13.280;2022-11-15T15:12:58;10.60;99.90
26262;DHT22;13988;52.446;13.280;2022-11-15T15:15:27;10.50;99.90
26262;DHT22;13988;52.446;13.280;2022-11-15T15:17:55;10.40;99.90
26262;DHT22;13988;52.446;13.280;2022-11-15T15:20:20;10.30;99.90
26262;DHT22;13988;52.446;13.280;2022-11-15T15:22:46;10.20;99.90
26262;DHT22;13988;52.446;13.280;2022-11-15T15:25:23;10.10;99.90
26262;DHT22;13988;52.446;13.280;2022-11-15T15:27:52;10.00;99.90
26262;DHT22;13988;52.446;13.280;2022-11-15T15:30:18;9.80;99.90
26262;DHT22;13988;52.446;13.280;2022-11-15T15:32:44;9.80;99.90
26262;DHT22;13988;52.446;13.280;2022-11-15T15:35:14;9.70;99.90
26262;DHT22;13988;52.446;13.280;2022-11-15T15:37:41;9.80;99.90
26262;DHT22;13988;52.446;13.280;2022-11-15T15:40:16;9.70;99.90
26262;DHT22;13988;52.446;13.280;2022-11-15T15:42:42;9.60;99.90
26262;DHT22;13988;52.446;13.280;2022-11-15T15:45:09;9.60;99.90
26262;DHT22;13988;52.446;13.280;2022-11-15T15:47:35;9.60;99.90
26262;DHT22;13988;52.446;13.280;2022-11-15T15:50:01;9.60;99.90
26262;DHT22;13988;52.446;13.280;2022-11-15T15:52:27;9.40;99.90
26262;DHT22;13988;52.446;13.280;2022-11-15T15:54:52;9.40;99.90
26262;DHT22;13988;52.446;13.280;2022-11-15T15:57:18;9.40;99.90
26262;DHT22;13988;52.446;13.280;2022-11-15T15:59:44;9.30;99.90
26262;DHT22;13988;52.446;13.280;2022-11-15T16:02:13;9.20;99.90
26262;DHT22;13988;52.446;13.280;2022-11-15T16:04:39;9.20;99.90
26262;DHT22;13988;52.446;13.280;2022-11-15T16:07:05;9.20;99.90
26262;DHT22;13988;52.446;13.280;2022-11-15T16:09:31;9.20;99.90
26262;DHT22;13988;52.446;13.280;2022-11-15T16:12:15;9.10;99.90
26262;DHT22;13988;52.446;13.280;2022-11-15T16:14:42;9.10;99.90
26262;DHT22;13988;52.446;13.280;2022-11-15T16:17:16;9.00;99.90
26262;DHT22;13988;52.446;13.280;2022-11-15T16:19:42;8.90;99.90
26262;DHT22;13988;52.446;13.280;2022-11-15T16:22:08;8.90;99.90
26262;DHT22;13988;52.446;13.280;2022-11-15T16:24:34;8.90;99.90
26262;DHT22;13988;52.446;13.280;2022-11-15T16:26:59;8.80;99.90
26262;DHT22;13988;52.446;13.280;2022-11-15T16:29:25;8.80;99.90
26262;DHT22;13988;52.446;13.280;2022-11-15T16:31:51;8.80;99.90
26262;DHT22;13988;52.446;13.280;2022-11-15T16:34:16;8.80;99.90
26262;DHT22;13988;52.446;13.280;2022-11-15T16:36:43;8.70;99.90
26262;DHT22;13988;52.446;13.280;2022-11-15T16:39:11;8.80;99.90
26262;DHT22;13988;52.446;13.280;2022-11-15T16:41:38;8.80;99.90
26262;DHT22;13988;52.446;13.280;2022-11-15T16:44:04;8.80;99.90
26262;DHT22;13988;52.446;13.280;2022-11-15T16:46:30;8.90;99.90
26262;DHT22;13988;52.446;13.280;2022-11-15T16:48:56;9.00;99.90
26262;DHT22;13988;52.446;13.280;2022-11-15T16:51:22;9.00;99.90
26262;DHT22;13988;52.446;13.280;2022-11-15T16:53:47;9.00;99.90
26262;DHT22;13988;52.446;13.280;2022-11-15T16:56:24;9.00;99.90
26262;DHT22;13988;52.446;13.280;2022-11-15T16:58:51;9.00;99.90
26262;DHT22;13988;52.446;13.280;2022-11-15T17:01:23;8.90;99.90
26262;DHT22;13988;52.446;13.280;2022-11-15T17:03:49;8.90;99.90
26262;DHT22;13988;52.446;13.280;2022-11-15T17:06:15;9.00;99.90
26262;DHT22;13988;52.446;13.280;2022-11-15T17:08:43;8.90;99.90
26262;DHT22;13988;52.446;13.280;2022-11-15T17:11:10;9.00;99.90
26262;DHT22;13988;52.446;13.280;2022-11-15T17:13:36;9.00;99.90
26262;DHT22;13988;52.446;13.280;2022-11-15T17:16:10;9.00;99.90
26262;DHT22;13988;52.446;13.280;2022-11-15T17:18:37;9.10;99.90
26262;DHT22;13988;52.446;13.280;2022-11-15T17:21:04;9.10;99.90
26262;DHT22;13988;52.446;13.280;2022-11-15T17:23:31;9.00;99.90
26262;DHT22;13988;52.446;13.280;2022-11-15T17:25:59;8.90;99.90
26262;DHT22;13988;52.446;13.280;2022-11-15T17:28:25;8.80;99.90
26262;DHT22;13988;52.446;13.280;2022-11-15T17:30:51;8.80;99.90
26262;DHT22;13988;52.446;13.280;2022-11-15T17:33:17;8.70;99.90
26262;DHT22;13988;52.446;13.280;2022-11-15T17:35:42;8.70;99.90
26262;DHT22;13988;52.446;13.280;2022-11-15T17:38:08;8.60;99.90
26262;DHT22;13988;52.446;13.280;2022-11-15T17:40:33;8.60;99.90
26262;DHT22;13988;52.446;13.280;2022-11-15T17:42:59;8.60;99.90
26262;DHT22;13988;52.446;13.280;2022-11-15T17:45:26;8.50;99.90
26262;DHT22;13988;52.446;13.280;2022-11-15T17:47:51;8.60;99.90
26262;DHT22;13988;52.446;13.280;2022-11-15T17:50:18;8.60;99.90
26262;DHT22;13988;52.446;13.280;2022-11-15T17:52:43;8.50;99.90
26262;DHT22;13988;52.446;13.280;2022-11-15T17:55:09;8.50;99.90